ジッダ の空港の天気 - METARとTAF

キング・アブドゥルアズィーズ国際空港(ジッダ) ( OEJN / JED ) - サウジアラビア ジッダ
飛行場実況気象(Metar)
観測時間08/11 09:00 AST (08/11 06:00 UTC)
風向・風速北北西 3m/s
視程10km以上
天気現象
全天の4割程度の雲 雲底高度 1070m
気温34℃
湿度63%
気圧1008hPa
METAROEJN 110600Z 33006KT 9999 SCT035 34/26 Q1008 NOSIG
過去の天気等 Google飛行場航空写真 Wunderground天気予報

過去48時間のMETAR

飛行場予報(TAF)
発表時間: 8/11 08:00 AST (8/11 05:00 UTC)
予報対象時間: 11日9時 AST ~ 12日15時 AST
風向・風速西北西 9m/s
視程10km以上
少しの雲 雲底高度 1220m
11日20時 AST ~ 11日22時 AST に徐々に
風向・風速北北東 5m/s
12日9時 AST ~ 12日11時 AST に徐々に
風向・風速北西 9m/s
TAF OEJN 110500Z 1106/1212 30018KT 9999 FEW040
BECMG 1117/1119 02010KT
BECMG 1206/1208 31018KT